Terminal Aerodrome Forecast
Issued by NWS Wilmington, NC

Home | Current Version | Previous Version | Text Only | Print | Product List | Glossary On
Versions: 1 2 3 4 5 6 7 8 9 10 11 12 13 14
000
FTUS42 KILM 241126
TAFILM
TAF
KILM 241126Z 2412/2512 24007KT P6SM SCT015 BKN060
      TEMPO 2412/2413 BKN015
     FM241600 22010KT P6SM VCTS BKN040CB
      TEMPO 2417/2421 3SM TSRA BKN025CB
     FM250400 23008KT P6SM SCT015 BKN100
      TEMPO 2508/2512 BKN015=

USA.gov is the U.S. government's official web portal to all federal, state and local government web resources and services.